Aviation Digital Data Service (ADDS)

Output produced by METARs form (2151 UTC 26 February 2020)
found at http://www.aviationweather.gov/metar/data/
 
KSCH 262049Z 08003KT 7SM OVC008 02/01 A2990 RMK MIST